Big Spring, Texas
Current Conditions -  °F | °C
As of 8:55 PM on Wednesday 26 Nov 2014 (Local Time) from KBPG Reporting Station
Clear Clear  
Wind Chill: 43°   Ceiling: Unl
Heat Index: 47°   Visibility: 10mi
Dew Point: 32°   Wind: 8mph
Humidity: 55%   Direction: 70°ENE
Pressure: 30.37"   Gusts: NA
Location:  32.25°N, 101.47°W
Report Text: KBPG 270255Z AUTO 07007KT 10SM CLR 08/00 A3037 RMK AO2 T00831002
Loading
Personal Weather Stations






























Interactive Weather Map New forecast layout! Learn more

10-Day Weather Forecast

Advertisements
Track Severe Weather on mobile